Rogue Valley International Medford Airport
KMFR : rendu visible

Aérodrome :











RETROUVEZ-NOUS SUR...

 
LOGIN :

S'inscrire | Disclaimer

   EN    FR    IT 

 









Légende :    VFR   VFR Marginal   IFR   IFR Intensif   IFR Très Intensif
Visi : 
Plafond : 
>= 8 km
>= 3000ft
5 à 8 km
1000 à 3000 ft
1500m à 5 km
500 à 1000 ft
800 à 1500m
200 à 500 ft
< 800m
< 200 ft
Symboles :   Orages  Brouillard  Fortes neiges  Fortes précipitations  Vent > 20 kt






- Altitude de l'aérodrome : 1335 ft
- Code IATA : MFR


KMFR - Rogue Valley International Medford

DERNIER METAR :
  • 072353Z 29010KT 10SM CLR 31/02 A2998 RMK AO2 SLP142 T03110017 10317 20189 56018

METARs EXPIRÉS :
  • 072253Z VRB04KT 10SM CLR 31/01 A2999 RMK AO2 SLP147 T03060006
  • 072153Z 30005KT 10SM CLR 28/02 A3002 RMK AO2 SLP156 T02830017

TAF KMFR
Valide du 08 à 00h jusqu'au 09 à 00h UTC


072342Z 0800/0824 32008KT P6SM SKC
FM080600 VRB03KT P6SM SKC
FM082200 32009KT P6SM SKC
FIR KZSE / Amérique du Nord



MET'MAP, la Météo Aéronautique d'un coup d'oeil ! - Copyright ORBIFLY Décembre 2007 - Disclaimer

ORBIFLY MET'MAP TEAM :

Programmation & Développement : Alexandra Zaïnal
Sur une idée originale de : Baudouin d'Aumeries
Assistance à la programmation : Marc-Olivier Méhu
Soutien technique & logistique : Manuel Goepfert

Contact : metmap@orbifly.com




SOURCES & CREDITS :

   NOAA       Earth
Advisory